Time;durP1;ratioP1;P1;durP2;ratioP2;P2;SDS_P1;SDS_P2;PMS_P1;PMS_P2;Temp;Humidity;BMP_temperature;BMP_pressure;BME280_temperature;BME280_humidity;BME280_pressure;Samples;Min_cycle;Max_cycle;Signal;HPM_P1;HPM_P2
2022/06/29 00:01:58;;;;;;;4.88;1.83;;;24.50;78.30;;;;;;5155141;27;20057;-68
2022/06/29 00:04:24;;;;;;;3.70;2.15;;;24.30;78.50;;;;;;5155296;27;20062;-72
2022/06/29 00:10:30;;;;;;;4.40;1.83;;;24.10;81.40;;;;;;5155473;27;20041;-67
2022/06/29 00:12:56;;;;;;;6.45;1.90;;;24.20;81.40;;;;;;5155778;27;20043;-71
2022/06/29 00:15:21;;;;;;;3.65;1.80;;;24.40;81.70;;;;;;5117839;27;20047;-71
2022/06/29 00:17:48;;;;;;;4.63;2.00;;;24.40;81.90;;;;;;5155100;27;20034;-70
2022/06/29 00:20:14;;;;;;;3.78;1.83;;;24.40;78.70;;;;;;5155308;27;20412;-71
2022/06/29 00:22:41;;;;;;;3.88;1.88;;;24.30;78.30;;;;;;5155514;27;20046;-71
2022/06/29 00:25:07;;;;;;;4.18;1.80;;;24.20;78.50;;;;;;5136974;27;20480;-69
2022/06/29 00:27:33;;;;;;;5.97;2.03;;;24.50;78.40;;;;;;5135742;27;20099;-64
2022/06/29 00:29:59;;;;;;;4.38;2.00;;;24.30;80.00;;;;;;5136786;27;20042;-71
2022/06/29 00:32:24;;;;;;;7.47;2.20;;;24.40;78.50;;;;;;5136586;27;20072;-71
2022/06/29 00:34:50;;;;;;;4.07;1.80;;;24.40;81.70;;;;;;5155486;27;20043;-70
2022/06/29 00:37:16;;;;;;;4.38;1.88;;;24.30;78.30;;;;;;5134890;27;20034;-71
2022/06/29 00:39:42;;;;;;;5.25;1.90;;;24.20;78.50;;;;;;5154364;27;20519;-71
2022/06/29 00:42:08;;;;;;;5.05;2.17;;;24.40;81.70;;;;;;5155058;27;20129;-69
2022/06/29 00:44:33;;;;;;;3.40;1.70;;;24.40;78.40;;;;;;5115516;27;20039;-71
2022/06/29 00:47:03;;;;;;;4.93;2.05;;;24.10;81.30;;;;;;5136521;27;20054;-71
2022/06/29 00:49:29;;;;;;;4.50;2.00;;;24.40;78.90;;;;;;5114340;28;20130;-71
2022/06/29 00:52:12;;;;;;;3.33;1.70;;;24.20;78.50;;;;;;5134267;28;20488;-71
2022/06/29 00:54:45;;;;;;;;;;;24.50;77.80;;;;;;5116650;28;20047;-69
2022/06/29 00:57:21;;;;;;;5.03;2.00;;;24.10;79.40;;;;;;5123346;27;19926;-71
2022/06/29 00:59:49;;;;;;;3.38;2.00;;;24.20;81.60;;;;;;5135229;27;20043;-69
2022/06/29 01:02:16;;;;;;;5.00;2.15;;;24.30;81.90;;;;;;5155248;27;20050;-67
2022/06/29 01:04:43;;;;;;;5.80;2.38;;;24.20;78.80;;;;;;5154328;27;20042;-71
2022/06/29 01:07:09;;;;;;;3.38;1.90;;;24.40;78.80;;;;;;5136312;27;20144;-71
2022/06/29 01:09:35;;;;;;;4.50;2.05;;;24.30;78.80;;;;;;5153484;27;20076;-72
2022/06/29 01:12:01;;;;;;;4.68;2.40;;;24.20;81.60;;;;;;5135956;27;20042;-71
2022/06/29 01:14:27;;;;;;;3.92;2.05;;;24.10;82.10;;;;;;5136087;27;20156;-71
2022/06/29 01:16:52;;;;;;;4.40;2.20;;;24.10;81.50;;;;;;5155055;27;20129;-72
2022/06/29 01:19:18;;;;;;;3.75;2.30;;;24.40;78.80;;;;;;5147351;27;20051;-68
2022/06/29 01:21:45;;;;;;;3.88;2.15;;;24.40;78.60;;;;;;5122468;27;20130;-72
2022/06/29 01:24:10;;;;;;;4.65;2.05;;;24.00;78.80;;;;;;5119634;27;20042;-71
2022/06/29 01:26:36;;;;;;;5.85;2.60;;;24.20;78.60;;;;;;5153280;27;20071;-72
2022/06/29 01:29:02;;;;;;;6.53;2.28;;;24.20;81.50;;;;;;5154083;27;20034;-68
2022/06/29 01:31:27;;;;;;;3.40;2.00;;;24.10;81.50;;;;;;5154609;27;20472;-72
2022/06/29 01:33:53;;;;;;;4.85;1.95;;;24.10;78.70;;;;;;5154522;27;20047;-71
2022/06/29 01:36:19;;;;;;;4.90;2.45;;;24.10;78.60;;;;;;5154142;27;20039;-72
2022/06/29 01:38:44;;;;;;;6.97;2.53;;;24.30;78.80;;;;;;5154895;27;20043;-69
2022/06/29 01:41:10;;;;;;;4.97;2.40;;;24.10;81.50;;;;;;5135513;27;20057;-68
2022/06/29 01:43:39;;;;;;;6.03;2.53;;;24.00;78.60;;;;;;5154288;27;20544;-71
2022/06/29 01:46:05;;;;;;;5.15;2.35;;;24.20;78.80;;;;;;5154729;27;20062;-72
2022/06/29 01:48:31;;;;;;;4.07;2.10;;;24.20;82.20;;;;;;5136589;27;20051;-71
2022/06/29 01:50:57;;;;;;;6.47;2.20;;;24.20;81.80;;;;;;5110207;27;20479;-71
2022/06/29 01:53:23;;;;;;;4.13;2.13;;;24.00;81.40;;;;;;5157588;27;20035;-71
2022/06/29 01:55:49;;;;;;;3.45;2.20;;;;;;;;;;5157879;27;20027;-64
2022/06/29 01:58:15;;;;;;;4.57;2.45;;;24.10;77.00;;;;;;5157930;27;20600;-71
2022/06/29 02:00:41;;;;;;;3.92;2.30;;;24.00;81.30;;;;;;5139971;27;20047;-66
2022/06/29 02:03:07;;;;;;;4.80;2.33;;;24.00;81.50;;;;;;5119557;27;20441;-71
2022/06/29 02:05:33;;;;;;;4.32;2.38;;;23.90;81.40;;;;;;5118791;27;20128;-70
2022/06/29 02:07:58;;;;;;;4.35;2.30;;;24.20;81.60;;;;;;5137738;27;20396;-70
2022/06/29 02:10:24;;;;;;;4.82;2.50;;;24.00;78.50;;;;;;5138014;27;20621;-71
2022/06/29 02:12:50;;;;;;;5.63;2.22;;;24.00;78.10;;;;;;5129978;27;20045;-71
2022/06/29 02:15:16;;;;;;;6.00;2.53;;;24.20;78.60;;;;;;5158163;27;20050;-71
2022/06/29 02:17:41;;;;;;;5.03;2.60;;;24.20;78.50;;;;;;5139206;27;20088;-65
2022/06/29 02:20:08;;;;;;;4.63;2.47;;;24.00;78.50;;;;;;5133904;27;20057;-68
2022/06/29 02:22:34;;;;;;;6.57;3.00;;;24.20;81.60;;;;;;5147693;27;20082;-71
2022/06/29 02:24:59;;;;;;;4.68;2.40;;;23.90;78.30;;;;;;5139118;27;20086;-71
2022/06/29 02:27:25;;;;;;;4.38;2.28;;;24.10;78.40;;;;;;5157703;27;20050;-71
2022/06/29 02:29:51;;;;;;;4.95;2.67;;;24.20;81.60;;;;;;5156604;27;20507;-71
2022/06/29 02:35:01;;;;;;;4.65;2.55;;;24.20;81.50;;;;;;5137829;27;20061;-70
2022/06/29 02:37:26;;;;;;;4.40;2.53;;;24.10;78.40;;;;;;5157383;27;20042;-66
2022/06/29 02:39:52;;;;;;;5.60;2.63;;;24.20;78.50;;;;;;5138686;27;20084;-71
2022/06/29 02:42:19;;;;;;;7.22;2.90;;;23.90;81.30;;;;;;5157545;27;20039;-71
2022/06/29 02:44:45;;;;;;;4.70;2.50;;;23.90;78.50;;;;;;5120519;27;20087;-66
2022/06/29 02:47:11;;;;;;;6.35;2.92;;;23.90;81.50;;;;;;5121745;27;20535;-71
2022/06/29 02:49:37;;;;;;;6.50;2.67;;;24.00;78.50;;;;;;5157175;27;20035;-67
2022/06/29 02:52:03;;;;;;;5.57;2.80;;;24.10;81.60;;;;;;5120728;27;20039;-71
2022/06/29 02:54:29;;;;;;;4.63;2.90;;;23.80;81.10;;;;;;5136103;27;20046;-72
2022/06/29 02:56:55;;;;;;;4.45;2.63;;;24.00;81.90;;;;;;5156474;27;20475;-70
2022/06/29 02:59:21;;;;;;;4.78;3.13;;;23.90;78.30;;;;;;5138458;27;20054;-71
2022/06/29 03:01:47;;;;;;;5.68;2.80;;;23.90;81.00;;;;;;5157036;27;20424;-71
2022/06/29 03:04:12;;;;;;;5.95;2.88;;;23.90;81.10;;;;;;5157185;27;20092;-71
2022/06/29 03:06:38;;;;;;;5.10;3.05;;;24.20;81.40;;;;;;5154389;27;20061;-70
2022/06/29 03:09:04;;;;;;;5.82;2.92;;;24.00;81.60;;;;;;5157069;27;20049;-72
2022/06/29 03:11:30;;;;;;;8.18;3.08;;;23.90;81.40;;;;;;5156671;27;20130;-70
2022/06/29 03:13:56;;;;;;;4.85;3.00;;;24.00;78.30;;;;;;5156520;27;20053;-71
2022/06/29 03:16:22;;;;;;;6.03;3.28;;;24.00;81.20;;;;;;5136925;27;20074;-67
2022/06/29 03:18:49;;;;;;;6.55;3.08;;;24.10;81.30;;;;;;5138065;27;20077;-71
2022/06/29 03:21:15;;;;;;;5.53;3.17;;;24.00;81.20;;;;;;5156838;27;20131;-71
2022/06/29 03:23:41;;;;;;;5.95;2.90;;;23.90;78.40;;;;;;5138976;27;20095;-71
2022/06/29 03:26:07;;;;;;;5.43;2.78;;;24.00;81.10;;;;;;5154621;27;20125;-68
2022/06/29 03:28:33;;;;;;;6.10;2.90;;;24.00;81.60;;;;;;5155648;27;20121;-72
2022/06/29 03:30:58;;;;;;;4.95;3.00;;;24.00;78.20;;;;;;5156967;27;20039;-72
2022/06/29 03:33:24;;;;;;;4.93;3.03;;;24.00;81.10;;;;;;5156583;27;20042;-71
2022/06/29 03:35:50;;;;;;;5.10;3.17;;;24.10;81.20;;;;;;5156538;27;20047;-66
2022/06/29 03:38:15;;;;;;;4.95;3.08;;;23.90;81.00;;;;;;5136130;27;20195;-71
2022/06/29 03:40:41;;;;;;;6.32;3.28;;;23.80;81.10;;;;;;5155019;27;20027;-71
2022/06/29 03:43:07;;;;;;;5.18;3.28;;;24.30;78.40;;;;;;5156423;27;20134;-70
2022/06/29 03:45:33;;;;;;;5.22;3.00;;;23.90;80.90;;;;;;5155199;27;20047;-71
2022/06/29 03:47:58;;;;;;;6.25;3.20;;;24.20;81.40;;;;;;5153744;27;20043;-70
2022/06/29 03:50:24;;;;;;;5.03;3.25;;;24.00;81.30;;;;;;5120381;27;20043;-71
2022/06/29 03:52:50;;;;;;;5.32;2.90;;;23.90;80.90;;;;;;5156729;27;20086;-71
2022/06/29 03:55:16;;;;;;;6.57;3.60;;;24.10;78.20;;;;;;5156119;27;20073;-71
2022/06/29 03:57:42;;;;;;;7.50;3.10;;;;;;;;;;5156183;27;20047;-67
2022/06/29 04:00:09;;;;;;;6.57;3.25;;;23.90;81.00;;;;;;5154495;27;20038;-70
2022/06/29 04:02:36;;;;;;;5.13;3.10;;;24.10;78.00;;;;;;5120302;27;20055;-70
2022/06/29 04:05:04;;;;;;;6.57;3.30;;;23.70;81.10;;;;;;5155109;27;20039;-67
2022/06/29 04:07:31;;;;;;;7.45;3.13;;;23.80;80.80;;;;;;5155872;27;20047;-69
2022/06/29 04:09:59;;;;;;;6.18;3.03;;;24.00;80.90;;;;;;5135846;27;20061;-67
2022/06/29 04:12:35;;;;;;;4.65;2.97;;;23.90;78.00;;;;;;5136857;27;20059;-71
2022/06/29 04:15:01;;;;;;;7.55;3.38;;;;;;;;;;5136760;27;20477;-66
2022/06/29 04:17:27;;;;;;;4.70;3.00;;;24.20;81.00;;;;;;5155059;27;20046;-70
2022/06/29 04:19:53;;;;;;;6.03;3.13;;;24.00;80.80;;;;;;5135551;27;20051;-70
2022/06/29 04:22:19;;;;;;;4.93;2.92;;;24.10;81.10;;;;;;5136688;27;20054;-69
2022/06/29 04:24:45;;;;;;;4.90;3.20;;;24.00;78.10;;;;;;5119668;27;20043;-71
2022/06/29 04:27:11;;;;;;;6.07;3.92;;;24.10;78.00;;;;;;5137512;27;20049;-71
2022/06/29 04:29:36;;;;;;;4.45;2.63;;;23.90;78.00;;;;;;5154467;27;20400;-67
2022/06/29 04:32:03;;;;;;;6.78;3.63;;;23.90;80.90;;;;;;5134979;27;20031;-70
2022/06/29 04:34:28;;;;;;;5.78;3.30;;;24.10;77.80;;;;;;5155541;27;20050;-72
2022/06/29 04:36:55;;;;;;;5.28;3.22;;;24.30;81.00;;;;;;5155460;27;20047;-68
2022/06/29 04:39:21;;;;;;;7.05;3.33;;;24.20;78.20;;;;;;5136785;27;20085;-70
2022/06/29 04:41:48;;;;;;;5.70;3.42;;;24.00;77.80;;;;;;5154470;27;20038;-71
2022/06/29 04:44:14;;;;;;;6.18;3.10;;;24.10;80.90;;;;;;5136292;27;20042;-71
2022/06/29 04:46:40;;;;;;;6.05;3.38;;;24.20;80.90;;;;;;5132048;27;20039;-71
2022/06/29 04:49:06;;;;;;;5.03;3.15;;;24.00;77.80;;;;;;5116081;28;20043;-70
2022/06/29 04:51:32;;;;;;;9.27;3.88;;;24.10;80.80;;;;;;5117300;27;20043;-65
2022/06/29 04:53:58;;;;;;;5.30;2.88;;;24.30;80.90;;;;;;5154830;27;20038;-68
2022/06/29 04:56:26;;;;;;;5.72;3.10;;;24.50;80.80;;;;;;5155169;27;20041;-71
2022/06/29 04:58:53;;;;;;;7.03;3.45;;;24.30;77.90;;;;;;5119946;27;20480;-71
2022/06/29 05:01:20;;;;;;;6.38;3.35;;;24.60;77.60;;;;;;5136494;27;20038;-71
2022/06/29 05:03:46;;;;;;;5.00;2.97;;;24.80;80.10;;;;;;5152404;27;20152;-64
2022/06/29 05:06:12;;;;;;;7.03;3.35;;;24.80;77.10;;;;;;5136329;27;20121;-70
2022/06/29 05:08:38;;;;;;;5.22;3.05;;;24.80;76.80;;;;;;5154883;27;20144;-68
2022/06/29 05:11:03;;;;;;;6.18;3.40;;;25.00;76.40;;;;;;5154348;27;20038;-70
2022/06/29 05:13:29;;;;;;;7.95;2.80;;;25.10;76.40;;;;;;5153647;27;20061;-72
2022/06/29 05:15:55;;;;;;;5.35;2.85;;;25.40;76.10;;;;;;5154318;27;20050;-68
2022/06/29 05:18:20;;;;;;;4.68;2.55;;;25.60;76.00;;;;;;5154995;27;20051;-69
2022/06/29 05:20:46;;;;;;;6.38;3.10;;;25.80;75.50;;;;;;5155589;27;20057;-68
2022/06/29 05:23:12;;;;;;;6.57;2.88;;;25.90;78.00;;;;;;5138693;27;20127;-64
2022/06/29 05:25:39;;;;;;;5.72;3.03;;;25.70;75.00;;;;;;5137887;27;20066;-67
2022/06/29 05:28:05;;;;;;;8.93;2.97;;;26.00;75.30;;;;;;5158338;27;20051;-69
2022/06/29 05:30:31;;;;;;;4.75;2.92;;;25.70;75.30;;;;;;5101505;27;20039;-64
2022/06/29 05:32:56;;;;;;;4.45;2.70;;;25.90;75.20;;;;;;5158550;27;20043;-64
2022/06/29 05:35:22;;;;;;;5.65;2.95;;;25.60;74.80;;;;;;5122059;27;20082;-64
2022/06/29 05:37:48;;;;;;;5.82;3.10;;;25.70;75.00;;;;;;5157819;27;20042;-64
2022/06/29 05:40:14;;;;;;;4.75;3.00;;;25.80;75.20;;;;;;5158881;27;20050;-69
2022/06/29 05:42:39;;;;;;;4.47;2.85;;;25.60;75.00;;;;;;5140176;27;20071;-69
2022/06/29 05:45:06;;;;;;;5.20;2.90;;;25.90;75.30;;;;;;5157549;27;20041;-67
2022/06/29 05:47:31;;;;;;;5.10;3.03;;;25.80;75.00;;;;;;5138983;27;20099;-68
2022/06/29 05:50:00;;;;;;;4.80;2.53;;;25.70;78.00;;;;;;5158626;27;20043;-69
2022/06/29 05:52:26;;;;;;;5.38;2.72;;;25.80;75.10;;;;;;5158628;27;20444;-70
2022/06/29 05:54:51;;;;;;;5.55;2.83;;;26.00;75.20;;;;;;5158153;27;20113;-62
2022/06/29 05:57:19;;;;;;;4.43;2.70;;;25.90;74.60;;;;;;5156096;27;20070;-63
2022/06/29 05:59:46;;;;;;;5.63;2.55;;;25.90;74.80;;;;;;5158051;27;20125;-68
2022/06/29 06:02:12;;;;;;;4.75;2.85;;;26.40;77.80;;;;;;5157958;27;20047;-69
2022/06/29 06:04:38;;;;;;;4.18;2.63;;;26.30;77.30;;;;;;5157012;27;20049;-67
2022/06/29 06:07:03;;;;;;;4.20;2.50;;;26.50;74.60;;;;;;5156794;27;20039;-66
2022/06/29 06:09:29;;;;;;;4.43;2.60;;;26.60;74.50;;;;;;5157858;27;20042;-70
2022/06/29 06:11:55;;;;;;;5.45;2.50;;;26.70;74.10;;;;;;5157891;27;20046;-71
2022/06/29 06:14:21;;;;;;;4.28;2.47;;;26.70;74.20;;;;;;5158215;27;20122;-71
2022/06/29 06:16:46;;;;;;;4.28;2.60;;;26.60;73.80;;;;;;5157027;27;20061;-70
2022/06/29 06:19:12;;;;;;;3.65;2.50;;;27.00;74.00;;;;;;5157037;27;20053;-70
2022/06/29 06:21:38;;;;;;;5.03;2.50;;;26.60;73.30;;;;;;5134810;27;20058;-71
2022/06/29 06:24:04;;;;;;;4.20;2.58;;;26.90;73.70;;;;;;5137224;27;20083;-71
2022/06/29 06:26:31;;;;;;;4.28;2.63;;;27.00;73.10;;;;;;5118714;27;20071;-71
2022/06/29 06:28:57;;;;;;;5.95;2.53;;;27.00;73.70;;;;;;5118758;27;20092;-71
2022/06/29 06:31:26;;;;;;;5.78;2.60;;;27.20;73.80;;;;;;5136838;27;20043;-71
2022/06/29 06:33:52;;;;;;;4.53;2.40;;;27.10;73.50;;;;;;5154770;27;20050;-70
2022/06/29 06:36:18;;;;;;;4.15;2.45;;;27.10;73.20;;;;;;5157293;27;20051;-71
2022/06/29 06:38:44;;;;;;;4.38;2.20;;;27.40;73.30;;;;;;5157731;27;20035;-71
2022/06/29 06:41:21;;;;;;;4.97;2.58;;;27.30;73.00;;;;;;5139295;27;20043;-70
2022/06/29 06:43:54;;;;;;;4.75;2.25;;;27.50;72.20;;;;;;5156164;27;20039;-71
2022/06/29 06:46:20;;;;;;;3.72;2.25;;;27.20;71.70;;;;;;5157560;27;20118;-71
2022/06/29 06:48:46;;;;;;;4.30;2.35;;;27.00;72.90;;;;;;5156941;27;20035;-70
2022/06/29 06:51:12;;;;;;;3.90;2.42;;;27.40;72.90;;;;;;5157508;27;20460;-71
2022/06/29 06:53:38;;;;;;;3.70;2.38;;;27.30;72.90;;;;;;5154913;27;20506;-72
2022/06/29 06:56:04;;;;;;;4.10;2.25;;;27.30;73.30;;;;;;5155865;27;20457;-72
2022/06/29 06:58:30;;;;;;;3.47;2.40;;;27.30;72.40;;;;;;5156769;27;20399;-71
2022/06/29 07:00:56;;;;;;;3.78;2.22;;;27.60;72.60;;;;;;5157246;27;20058;-71
2022/06/29 07:03:22;;;;;;;4.13;2.40;;;27.40;72.50;;;;;;5157218;27;20091;-71
2022/06/29 07:05:47;;;;;;;4.68;2.38;;;27.40;72.20;;;;;;5138424;27;20148;-71
2022/06/29 07:08:13;;;;;;;3.65;2.20;;;27.40;72.30;;;;;;5149759;27;20070;-71
2022/06/29 07:10:39;;;;;;;4.80;2.30;;;27.70;72.30;;;;;;5156612;27;20057;-72
2022/06/29 07:13:05;;;;;;;4.25;2.20;;;27.70;72.30;;;;;;5138417;27;20046;-69
2022/06/29 07:15:30;;;;;;;4.45;2.28;;;27.70;71.80;;;;;;5154127;27;20055;-69
2022/06/29 07:17:56;;;;;;;4.40;2.20;;;28.00;72.40;;;;;;5154812;27;20039;-63
2022/06/29 07:20:28;;;;;;;4.95;2.35;;;27.90;71.80;;;;;;5156637;27;20042;-71
2022/06/29 07:22:54;;;;;;;4.03;2.30;;;27.80;71.80;;;;;;5156853;27;20053;-72
2022/06/29 07:25:19;;;;;;;3.10;2.13;;;27.90;71.90;;;;;;5155391;27;20039;-71
2022/06/29 07:27:45;;;;;;;4.60;1.92;;;27.80;71.70;;;;;;5155762;27;20062;-72
2022/06/29 07:30:12;;;;;;;3.50;2.10;;;28.00;71.80;;;;;;5156722;27;20085;-67
2022/06/29 07:32:37;;;;;;;6.82;2.30;;;27.90;71.30;;;;;;5137805;27;20046;-75
2022/06/29 07:35:03;;;;;;;5.45;2.47;;;28.00;71.70;;;;;;5136905;27;20062;-76
2022/06/29 07:37:29;;;;;;;6.60;2.40;;;27.80;70.80;;;;;;5155136;27;20479;-63
2022/06/29 07:39:55;;;;;;;7.32;2.33;;;27.90;71.40;;;;;;5103689;27;20051;-71
2022/06/29 07:42:21;;;;;;;4.72;2.72;;;28.00;71.00;;;;;;5156138;27;20050;-66
2022/06/29 07:44:47;;;;;;;9.70;4.13;;;28.10;71.00;;;;;;5137396;27;20074;-76
2022/06/29 07:47:13;;;;;;;6.63;2.97;;;27.80;70.20;;;;;;5153865;27;20038;-74
2022/06/29 07:49:38;;;;;;;6.15;3.40;;;27.80;70.00;;;;;;5156290;27;20034;-76
2022/06/29 07:52:04;;;;;;;6.97;3.47;;;27.90;70.00;;;;;;5155928;27;20415;-77
2022/06/29 07:54:30;;;;;;;5.88;3.53;;;27.80;69.60;;;;;;5136813;27;20042;-65
2022/06/29 07:56:56;;;;;;;6.13;3.20;;;27.90;69.30;;;;;;5136230;27;20422;-72
2022/06/29 07:59:21;;;;;;;8.20;3.53;;;27.80;69.20;;;;;;5155642;27;20091;-73
2022/06/29 08:01:47;;;;;;;7.10;3.80;;;27.70;69.10;;;;;;5133871;27;20039;-72
2022/06/29 08:04:13;;;;;;;6.50;3.38;;;27.60;69.10;;;;;;5143751;27;20038;-72
2022/06/29 08:06:39;;;;;;;5.30;3.40;;;27.80;69.00;;;;;;5155882;27;20038;-72
2022/06/29 08:09:05;;;;;;;6.55;3.38;;;27.80;68.90;;;;;;5154573;27;20095;-65
2022/06/29 08:11:31;;;;;;;6.15;3.50;;;27.80;68.50;;;;;;5155075;27;20046;-72
2022/06/29 08:13:57;;;;;;;9.02;3.83;;;27.70;68.30;;;;;;5155543;27;20042;-71
2022/06/29 08:16:23;;;;;;;6.95;3.28;;;27.70;68.20;;;;;;5137345;27;20042;-62
2022/06/29 08:18:49;;;;;;;7.32;3.30;;;28.00;68.50;;;;;;5152409;27;20559;-63
2022/06/29 08:21:14;;;;;;;4.85;2.75;;;28.00;68.20;;;;;;5137182;27;20125;-63
2022/06/29 08:23:40;;;;;;;8.43;3.60;;;27.80;68.30;;;;;;5135151;27;20045;-62
2022/06/29 08:26:06;;;;;;;6.97;3.03;;;28.00;68.30;;;;;;5136099;27;20047;-62
2022/06/29 08:28:31;;;;;;;4.50;2.90;;;28.10;68.60;;;;;;5154578;27;20050;-70
2022/06/29 08:30:57;;;;;;;4.95;2.70;;;27.70;67.90;;;;;;5136270;27;20491;-63
2022/06/29 08:33:23;;;;;;;5.68;3.15;;;28.00;68.20;;;;;;5136986;27;20039;-63
2022/06/29 08:35:49;;;;;;;11.98;3.10;;;27.80;68.10;;;;;;5155407;27;20502;-63
2022/06/29 08:38:15;;;;;;;5.18;3.35;;;28.00;68.20;;;;;;5155516;27;20119;-74
2022/06/29 08:40:44;;;;;;;9.80;2.97;;;27.70;67.60;;;;;;5153378;27;20118;-74
2022/06/29 08:43:17;;;;;;;4.85;3.53;;;28.00;68.20;;;;;;5136805;27;20044;-71
2022/06/29 08:45:44;;;;;;;5.93;3.33;;;27.90;66.70;;;;;;5155414;27;20121;-73
2022/06/29 08:48:11;;;;;;;8.13;3.25;;;28.00;68.20;;;;;;5155245;27;20368;-71
2022/06/29 08:50:52;;;;;;;7.20;3.38;;;27.90;68.10;;;;;;5154022;27;20034;-72
2022/06/29 08:53:18;;;;;;;5.10;3.25;;;27.80;68.10;;;;;;5154812;27;20046;-70
2022/06/29 08:55:45;;;;;;;5.53;2.85;;;28.10;68.20;;;;;;5154965;27;20042;-72
2022/06/29 08:58:21;;;;;;;7.45;3.35;;;28.10;68.20;;;;;;5137676;27;20103;-73
2022/06/29 09:00:49;;;;;;;4.88;3.08;;;28.20;68.40;;;;;;5139382;27;20043;-73
2022/06/29 09:03:17;;;;;;;7.40;2.92;;;27.90;67.70;;;;;;5139574;27;20579;-72
2022/06/29 09:05:50;;;;;;;4.68;3.17;;;28.10;68.10;;;;;;5157642;27;20038;-73
2022/06/29 09:08:16;;;;;;;7.90;3.20;;;28.20;68.20;;;;;;5140533;27;20503;-73
2022/06/29 09:10:42;;;;;;;7.97;3.35;;;28.00;67.80;;;;;;5138488;27;20043;-72
2022/06/29 09:13:08;;;;;;;4.90;3.15;;;28.20;67.70;;;;;;5139381;27;20061;-73
2022/06/29 09:15:41;;;;;;;5.22;3.35;;;28.30;67.70;;;;;;5140533;27;20487;-69
2022/06/29 09:18:32;;;;;;;6.13;3.25;;;28.30;67.90;;;;;;5141018;27;20365;-69
2022/06/29 09:20:59;;;;;;;6.05;3.20;;;28.20;66.20;;;;;;5140671;27;20407;-72
2022/06/29 09:23:25;;;;;;;5.95;3.53;;;28.30;67.80;;;;;;5155915;27;20035;-73
2022/06/29 09:25:51;;;;;;;4.72;3.17;;;28.30;67.60;;;;;;5159158;27;20066;-74
2022/06/29 09:28:21;;;;;;;5.63;3.22;;;28.30;67.40;;;;;;5139589;27;20115;-74
2022/06/29 09:30:47;;;;;;;5.03;3.20;;;27.90;65.80;;;;;;5158825;27;20043;-73
2022/06/29 09:33:12;;;;;;;6.30;3.33;;;28.10;67.20;;;;;;5156795;27;20062;-73
2022/06/29 09:35:39;;;;;;;6.22;3.67;;;28.20;66.90;;;;;;5139662;27;20103;-73
2022/06/29 09:38:27;;;;;;;6.45;3.50;;;28.20;67.40;;;;;;5140266;27;20133;-62
2022/06/29 09:41:02;;;;;;;7.00;3.58;;;28.10;68.10;;;;;;5158890;27;20404;-72
2022/06/29 09:43:29;;;;;;;6.57;3.40;;;28.10;67.50;;;;;;5153242;27;20041;-73
2022/06/29 09:45:55;;;;;;;5.90;3.60;;;28.10;67.80;;;;;;5158357;27;20403;-70
2022/06/29 09:48:25;;;;;;;5.95;3.25;;;28.40;67.80;;;;;;5158218;27;20038;-71
2022/06/29 09:50:53;;;;;;;5.32;3.42;;;28.10;68.00;;;;;;5158672;27;20404;-71
2022/06/29 09:53:27;;;;;;;7.80;3.40;;;28.10;67.60;;;;;;5157871;27;20039;-69
2022/06/29 09:55:55;;;;;;;6.70;3.50;;;28.20;68.00;;;;;;5140103;27;20511;-73
2022/06/29 09:58:39;;;;;;;7.50;3.63;;;28.30;67.80;;;;;;5135031;27;20515;-71
2022/06/29 10:03:49;;;;;;;4.75;3.17;;;28.20;66.70;;;;;;5127918;27;20122;-74
2022/06/29 10:06:16;;;;;;;6.32;3.90;;;28.20;67.40;;;;;;5138226;27;20395;-73
2022/06/29 10:08:42;;;;;;;5.25;3.30;;;28.20;67.70;;;;;;5120398;27;20440;-71
2022/06/29 10:14:00;;;;;;;6.38;3.35;;;28.10;68.00;;;;;;5143453;27;20042;-73
2022/06/29 10:16:36;;;;;;;10.40;3.50;;;28.20;68.00;;;;;;5122237;27;20079;-73
2022/06/29 10:19:30;;;;;;;5.68;3.03;;;28.40;66.70;;;;;;5136431;27;20093;-73
2022/06/29 10:21:56;;;;;;;5.72;3.20;;;28.00;66.50;;;;;;5157468;27;20046;-74
2022/06/29 10:24:22;;;;;;;6.38;3.08;;;28.10;67.80;;;;;;5122509;27;20042;-74
2022/06/29 10:26:49;;;;;;;9.32;3.30;;;28.30;67.80;;;;;;5139065;27;20499;-73
2022/06/29 10:29:18;;;;;;;7.15;3.42;;;28.40;68.10;;;;;;5115798;27;20043;-73
2022/06/29 10:31:50;;;;;;;6.47;3.55;;;28.40;67.60;;;;;;5147339;27;20050;-72
2022/06/29 10:34:41;;;;;;;;;;;;;;;;;;;;;
2022/06/29 10:37:12;;;;;;;6.80;3.40;;;28.40;67.30;;;;;;5136553;27;20051;-72
2022/06/29 10:39:50;;;;;;;11.23;3.88;;;28.40;66.40;;;;;;5106930;27;20384;-73
2022/06/29 10:45:06;;;;;;;12.45;3.70;;;28.20;66.40;;;;;;5139040;27;20046;-62
2022/06/29 10:47:33;;;;;;;9.38;4.00;;;28.20;67.20;;;;;;5157034;27;20053;-63
2022/06/29 10:50:28;;;;;;;7.70;3.72;;;28.10;67.00;;;;;;5155940;27;20119;-63
2022/06/29 10:53:07;;;;;;;6.13;3.58;;;28.30;67.30;;;;;;5071257;28;20421;-62
2022/06/29 10:55:36;;;;;;;8.02;3.58;;;28.20;65.80;;;;;;5072509;28;20048;-70
2022/06/29 10:58:02;;;;;;;8.60;3.90;;;28.10;67.00;;;;;;5053299;28;20099;-72
2022/06/29 11:00:30;;;;;;;12.57;4.38;;;28.10;66.90;;;;;;5065993;28;20044;-74
2022/06/29 11:02:56;;;;;;;5.90;3.22;;;28.30;67.10;;;;;;5071772;28;20060;-72
2022/06/29 11:05:22;;;;;;;5.65;3.35;;;28.50;66.90;;;;;;5072917;28;20098;-73
2022/06/29 11:13:24;;;;;;;6.88;3.72;;;28.30;66.70;;;;;;5057974;28;20097;-73
2022/06/29 11:15:51;;;;;;;6.95;3.47;;;28.60;66.70;;;;;;5072466;28;20064;-68
2022/06/29 11:18:20;;;;;;;4.63;3.15;;;28.40;66.70;;;;;;5072378;28;20052;-72
2022/06/29 11:20:51;;;;;;;7.68;3.67;;;28.20;66.60;;;;;;5054444;28;20048;-68
2022/06/29 11:23:20;;;;;;;7.15;3.60;;;28.60;66.60;;;;;;5048595;28;20133;-69
2022/06/29 11:25:48;;;;;;;8.35;3.47;;;28.40;66.70;;;;;;5064171;28;20532;-68
2022/06/29 11:28:17;;;;;;;6.07;3.40;;;28.50;66.90;;;;;;5075394;27;20048;-71
2022/06/29 11:31:03;;;;;;;6.82;3.50;;;28.20;66.60;;;;;;5135684;27;20044;-69
2022/06/29 11:33:30;;;;;;;5.72;3.42;;;28.10;66.70;;;;;;5137246;27;20062;-70
2022/06/29 11:35:56;;;;;;;8.25;3.70;;;28.40;67.00;;;;;;5156906;27;20046;-70
2022/06/29 11:38:26;;;;;;;4.95;2.80;;;28.40;66.60;;;;;;5155601;27;20074;-62
2022/06/29 11:40:54;;;;;;;5.60;3.13;;;28.20;67.10;;;;;;5156523;27;20053;-62
2022/06/29 11:43:20;;;;;;;5.03;3.10;;;28.30;66.70;;;;;;5155985;27;20035;-62
2022/06/29 11:45:49;;;;;;;7.88;3.17;;;28.40;66.90;;;;;;5152623;27;20038;-62
2022/06/29 11:48:17;;;;;;;5.07;2.65;;;28.40;66.60;;;;;;5146497;27;20051;-62
2022/06/29 11:50:53;;;;;;;4.68;2.63;;;28.10;66.80;;;;;;5135574;27;20100;-64
2022/06/29 11:53:44;;;;;;;4.60;2.92;;;28.30;65.20;;;;;;5135503;27;20115;-63
2022/06/29 11:56:17;;;;;;;8.60;3.08;;;28.20;65.00;;;;;;5149959;27;20058;-62
2022/06/29 11:58:46;;;;;;;4.35;2.90;;;28.40;65.00;;;;;;5135959;27;20047;-62
2022/06/29 12:01:15;;;;;;;5.07;2.85;;;28.50;66.50;;;;;;5155617;27;20038;-63
2022/06/29 12:03:53;;;;;;;6.03;3.10;;;28.40;66.20;;;;;;5137180;27;20054;-64
2022/06/29 12:06:21;;;;;;;6.75;3.28;;;28.40;64.70;;;;;;5135989;27;20134;-63
2022/06/29 12:08:47;;;;;;;5.38;3.13;;;28.30;66.00;;;;;;5137160;27;20050;-63
2022/06/29 12:11:13;;;;;;;6.05;3.28;;;28.80;66.00;;;;;;5137605;27;20042;-63
2022/06/29 12:13:40;;;;;;;5.65;3.55;;;28.50;65.70;;;;;;5137204;27;20051;-62
2022/06/29 12:16:06;;;;;;;4.68;3.00;;;28.30;65.00;;;;;;5135946;27;20122;-63
2022/06/29 12:18:32;;;;;;;6.07;3.65;;;28.50;65.80;;;;;;5136578;27;20047;-63
2022/06/29 12:20:58;;;;;;;7.10;4.20;;;28.50;65.70;;;;;;5156072;27;20161;-62
2022/06/29 12:23:24;;;;;;;6.35;3.50;;;28.60;65.80;;;;;;5132732;27;20052;-62
2022/06/29 12:25:50;;;;;;;5.15;4.05;;;28.70;65.00;;;;;;5134576;27;20053;-62
2022/06/29 12:28:16;;;;;;;6.10;3.72;;;28.50;65.70;;;;;;5148159;27;20487;-62
2022/06/29 12:30:42;;;;;;;6.65;4.00;;;28.50;65.70;;;;;;5119836;27;20095;-62
2022/06/29 12:33:09;;;;;;;5.97;4.00;;;28.60;65.80;;;;;;5135704;27;20095;-62
2022/06/29 12:35:38;;;;;;;5.75;4.07;;;28.70;65.70;;;;;;5132456;27;20051;-62
2022/06/29 12:38:04;;;;;;;5.45;3.75;;;28.40;65.60;;;;;;5144607;27;20100;-63
2022/06/29 12:40:30;;;;;;;7.35;3.97;;;28.80;65.80;;;;;;5116058;28;20039;-63
2022/06/29 12:42:56;;;;;;;6.88;4.45;;;28.80;66.00;;;;;;5116513;27;20071;-62
2022/06/29 12:45:23;;;;;;;5.93;4.68;;;28.40;66.00;;;;;;5118829;27;20089;-63
2022/06/29 12:47:49;;;;;;;6.70;4.82;;;28.50;66.10;;;;;;5119336;27;20070;-62
2022/06/29 12:50:15;;;;;;;7.70;5.32;;;28.60;66.30;;;;;;5153626;27;20054;-63
2022/06/29 12:52:46;;;;;;;8.38;5.25;;;28.70;66.50;;;;;;5134317;27;20043;-63
2022/06/29 12:55:13;;;;;;;6.45;5.43;;;28.70;67.10;;;;;;5116854;27;20050;-63
2022/06/29 12:57:39;;;;;;;7.57;5.55;;;28.90;67.60;;;;;;5135432;27;20042;-62
2022/06/29 13:00:06;;;;;;;7.95;5.63;;;28.90;67.80;;;;;;5136535;27;20034;-62
2022/06/29 13:02:31;;;;;;;7.85;5.45;;;29.00;67.20;;;;;;5155193;27;20035;-63
2022/06/29 13:04:57;;;;;;;7.90;5.97;;;28.80;67.60;;;;;;5136555;27;20483;-63
2022/06/29 13:07:26;;;;;;;8.43;5.80;;;28.70;67.60;;;;;;5154044;27;20395;-63
2022/06/29 13:09:55;;;;;;;9.57;5.82;;;28.80;67.90;;;;;;5136549;27;20114;-62